Horsens, Denmark
Current Conditions -  °F | °C
As of 12:50 AM on Tuesday 21 Oct 2014 (Local Time) from EKBI Reporting Station
Broken Clouds Broken Clouds  
Wind Chill: 50°   Ceiling: 10000
Heat Index: 50°   Visibility: 4mi
Dew Point: 50°   Wind: 6mph
Humidity: 100%   Direction: 210°SSW
Pressure: 29.71"   Gusts: NA
Location:  55.86°N, 9.85°E
Report Text: EKBI 202250Z AUTO 21005KT 7000NDV FEW042/// BKN100/// 10/10 Q1006
Loading
Personal Weather Stations






























Interactive Weather Map
Tropical Storm Tracking
New forecast layout! Learn more

10-Day Weather Forecast

Advertisements
Track Severe Weather on mobile